createdAt,value
2023-05-02T00:00:55.536Z,51.39
2023-05-02T00:03:58.699Z,49.29
2023-05-02T00:07:01.766Z,50.05
2023-05-02T00:10:06.089Z,53.00
2023-05-02T00:13:08.724Z,52.19
2023-05-02T00:16:11.799Z,53.97
2023-05-02T00:19:15.045Z,54.25
2023-05-02T00:22:17.798Z,51.52
2023-05-02T00:25:20.585Z,53.49
2023-05-02T00:28:23.577Z,54.36
2023-05-02T00:31:26.380Z,51.08
2023-05-02T00:34:30.867Z,53.87
2023-05-02T00:37:33.361Z,53.25
2023-05-02T00:40:47.812Z,55.46
2023-05-02T00:43:50.547Z,52.38
2023-05-02T00:46:54.637Z,50.94
2023-05-02T00:49:57.912Z,53.16
2023-05-02T00:53:01.151Z,50.29
2023-05-02T00:56:03.762Z,51.84
2023-05-02T00:59:08.896Z,54.30
2023-05-02T01:02:53.530Z,54.62
2023-05-02T01:06:10.645Z,52.30
2023-05-02T01:09:27.393Z,55.59
2023-05-02T01:12:41.097Z,54.77
2023-05-02T01:15:45.856Z,50.92
2023-05-02T01:18:50.646Z,50.22
2023-05-02T01:21:55.080Z,50.89
2023-05-02T01:25:16.820Z,50.52
2023-05-02T01:28:38.805Z,51.45
2023-05-02T01:31:46.450Z,51.14
2023-05-02T01:34:52.394Z,51.81
2023-05-02T01:37:57.646Z,51.41
2023-05-02T01:41:05.164Z,52.85
2023-05-02T01:44:09.819Z,53.19
2023-05-02T01:47:13.565Z,52.97
2023-05-02T01:50:21.145Z,53.11
2023-05-02T01:53:26.632Z,53.70
2023-05-02T01:56:33.302Z,54.07
2023-05-02T01:59:37.905Z,54.63
2023-05-02T02:02:46.654Z,55.68
2023-05-02T02:05:53.060Z,56.74
2023-05-02T02:08:55.934Z,56.00
2023-05-02T02:12:03.370Z,56.84
2023-05-02T02:15:27.413Z,57.38
2023-05-02T02:18:39.191Z,57.32
2023-05-02T02:21:50.219Z,58.14
2023-05-02T02:24:54.503Z,57.77
2023-05-02T02:27:58.169Z,58.14
2023-05-02T02:31:00.967Z,58.67
2023-05-02T02:34:05.090Z,61.11
2023-05-02T02:37:19.167Z,61.64
2023-05-02T02:40:34.679Z,61.24
2023-05-02T02:43:52.413Z,62.85
2023-05-02T02:47:10.684Z,62.14
2023-05-02T02:50:18.996Z,64.87
2023-05-02T02:53:31.038Z,64.73
2023-05-02T02:56:40.422Z,64.74
2023-05-02T02:59:55.785Z,65.73
2023-05-02T03:03:00.429Z,64.87
2023-05-02T03:06:04.809Z,68.04
2023-05-02T03:09:15.148Z,70.07
2023-05-02T03:12:18.364Z,70.54
2023-05-02T03:15:43.272Z,70.81
2023-05-02T03:18:46.507Z,71.34
2023-05-02T03:21:50.118Z,69.56
2023-05-02T03:24:54.430Z,68.70
2023-05-02T03:28:00.213Z,70.28
2023-05-02T03:31:03.722Z,69.72
2023-05-02T03:34:07.240Z,68.57
2023-05-02T03:37:11.049Z,69.78
2023-05-02T03:40:14.838Z,70.09
2023-05-02T03:43:18.093Z,71.21
2023-05-02T03:46:21.507Z,71.15
2023-05-02T03:49:24.977Z,72.10
2023-05-02T03:52:28.720Z,72.32
2023-05-02T03:55:32.251Z,70.47
2023-05-02T03:58:38.660Z,71.02
2023-05-02T04:01:41.553Z,70.12
2023-05-02T04:04:45.494Z,69.17
2023-05-02T04:07:49.751Z,68.69
2023-05-02T04:10:53.084Z,66.91
2023-05-02T04:13:56.852Z,68.48
2023-05-02T04:16:59.867Z,69.83
2023-05-02T04:20:05.560Z,70.09
2023-05-02T04:23:09.202Z,70.74
2023-05-02T04:26:11.883Z,70.39
2023-05-02T04:29:15.356Z,68.93
2023-05-02T04:32:18.771Z,68.47
2023-05-02T04:35:21.901Z,66.31
2023-05-02T04:38:24.695Z,63.68
2023-05-02T04:41:28.199Z,63.10
2023-05-02T04:44:31.520Z,59.80
2023-05-02T04:47:34.450Z,60.79
2023-05-02T04:50:37.423Z,61.37
2023-05-02T04:53:40.482Z,60.76
2023-05-02T04:56:43.252Z,63.56
2023-05-02T04:59:47.362Z,63.97
2023-05-02T05:02:50.067Z,60.18
2023-05-02T05:05:53.060Z,58.83
2023-05-02T05:08:57.119Z,57.78
2023-05-02T05:12:00.676Z,56.09
2023-05-02T05:15:04.476Z,55.95
2023-05-02T05:18:07.674Z,55.35
2023-05-02T05:21:11.088Z,53.63
2023-05-02T05:24:16.462Z,55.26
2023-05-02T05:27:19.406Z,53.94
2023-05-02T05:30:23.233Z,53.20
2023-05-02T05:33:26.112Z,54.49
2023-05-02T05:36:29.251Z,54.75
2023-05-02T05:39:32.639Z,53.79
2023-05-02T05:42:36.226Z,54.64
2023-05-02T05:45:39.627Z,54.17
2023-05-02T05:48:43.032Z,52.26
2023-05-02T05:51:47.670Z,53.24
2023-05-02T05:54:55.737Z,50.33
2023-05-02T05:57:58.921Z,47.12
2023-05-02T06:01:02.169Z,46.02
2023-05-02T06:04:05.706Z,47.02
2023-05-02T06:07:09.407Z,48.01
2023-05-02T06:10:12.500Z,49.86
2023-05-02T06:13:15.830Z,49.04
2023-05-02T06:16:20.192Z,48.04
2023-05-02T06:19:22.771Z,47.20
2023-05-02T06:22:25.973Z,44.52
2023-05-02T06:25:29.047Z,44.57
2023-05-02T06:28:32.228Z,43.88
2023-05-02T06:31:34.819Z,43.10
2023-05-02T06:34:37.661Z,44.44
2023-05-02T06:37:40.283Z,42.81
2023-05-02T06:40:45.308Z,42.63
2023-05-02T06:43:47.871Z,45.71
2023-05-02T06:46:50.782Z,45.42
2023-05-02T06:49:53.860Z,42.85
2023-05-02T06:52:56.649Z,42.42
2023-05-02T06:55:59.763Z,39.63
2023-05-02T06:59:02.940Z,40.48
2023-05-02T07:02:06.829Z,42.23
2023-05-02T07:05:10.404Z,38.24
2023-05-02T07:08:13.098Z,39.71
2023-05-02T07:11:16.177Z,43.83
2023-05-02T07:14:18.845Z,45.33
2023-05-02T07:17:22.461Z,43.31
2023-05-02T07:20:25.263Z,41.40
2023-05-02T07:23:28.439Z,39.35
2023-05-02T07:26:31.350Z,39.68
2023-05-02T07:29:34.214Z,39.09
2023-05-02T07:32:37.016Z,37.81
2023-05-02T07:35:39.834Z,40.25
2023-05-02T07:38:42.670Z,42.43
2023-05-02T07:41:50.061Z,39.99
2023-05-02T07:44:52.534Z,40.55
2023-05-02T07:47:55.802Z,43.81
2023-05-02T07:51:06.979Z,44.21
2023-05-02T07:54:20.334Z,42.32
2023-05-02T07:57:23.636Z,38.72
2023-05-02T08:00:26.639Z,39.27
2023-05-02T08:03:31.042Z,38.70
2023-05-02T08:06:35.069Z,38.25
2023-05-02T08:09:40.734Z,37.01
2023-05-02T08:12:43.826Z,38.43
2023-05-02T08:15:46.913Z,39.74
2023-05-02T08:18:49.619Z,37.21
2023-05-02T08:21:54.263Z,38.77
2023-05-02T08:24:56.796Z,37.60
2023-05-02T08:28:01.724Z,38.07
2023-05-02T08:31:04.432Z,37.82
2023-05-02T08:34:07.335Z,38.07
2023-05-02T08:37:12.090Z,35.96
2023-05-02T08:40:22.111Z,34.60
2023-05-02T08:43:33.474Z,35.86
2023-05-02T08:46:37.277Z,37.29
2023-05-02T08:49:41.128Z,36.36
2023-05-02T08:52:46.116Z,33.85
2023-05-02T08:55:51.015Z,35.24
2023-05-02T08:58:56.482Z,33.39
2023-05-02T09:02:10.441Z,34.55
2023-05-02T09:05:19.339Z,35.34
2023-05-02T09:08:23.857Z,37.33
2023-05-02T09:11:26.709Z,37.58
2023-05-02T09:14:29.581Z,38.50
2023-05-02T09:17:40.601Z,37.80
2023-05-02T09:20:44.949Z,35.00
2023-05-02T09:23:49.309Z,32.69
2023-05-02T09:27:03.054Z,33.98
2023-05-02T09:30:30.843Z,34.47
2023-05-02T09:33:34.512Z,33.05
2023-05-02T09:36:41.759Z,32.67
2023-05-02T09:40:11.683Z,31.30
2023-05-02T09:43:17.160Z,31.84
2023-05-02T09:46:20.255Z,31.69
2023-05-02T09:49:45.838Z,32.29
2023-05-02T09:53:05.119Z,33.68
2023-05-02T09:56:09.397Z,36.14
2023-05-02T09:59:14.586Z,36.59
2023-05-02T10:02:18.296Z,34.95
2023-05-02T10:05:21.532Z,33.16
2023-05-02T10:08:28.667Z,31.80
2023-05-02T10:11:33.631Z,33.27
2023-05-02T10:14:41.648Z,33.22
2023-05-02T10:17:49.257Z,32.10
2023-05-02T10:20:58.719Z,33.03
2023-05-02T10:24:03.629Z,32.34
2023-05-02T10:27:06.935Z,32.62
2023-05-02T10:30:10.793Z,30.81
2023-05-02T10:33:14.833Z,33.78
2023-05-02T10:36:22.433Z,33.91
2023-05-02T10:39:25.244Z,32.92
2023-05-02T10:42:30.355Z,35.38
2023-05-02T10:45:37.414Z,35.55
2023-05-02T10:48:40.775Z,34.35
2023-05-02T10:51:43.756Z,33.13
2023-05-02T10:54:47.394Z,29.48
2023-05-02T10:57:59.190Z,29.31
2023-05-02T11:01:37.948Z,31.19
2023-05-02T11:05:08.314Z,31.40
2023-05-02T11:08:19.451Z,32.99
2023-05-02T11:11:46.933Z,32.57
2023-05-02T11:14:50.080Z,33.68
2023-05-02T11:18:09.165Z,33.54
2023-05-02T11:21:28.585Z,34.72
2023-05-02T11:24:44.809Z,37.13
2023-05-02T11:27:49.279Z,35.29
2023-05-02T11:30:51.900Z,35.28
2023-05-02T11:33:59.352Z,35.04
2023-05-02T11:37:11.702Z,34.74
2023-05-02T11:40:15.380Z,33.28
2023-05-02T11:43:19.936Z,32.93
2023-05-02T11:46:23.107Z,31.18
2023-05-02T11:49:25.894Z,32.71
2023-05-02T11:52:28.862Z,33.24
2023-05-02T11:55:31.545Z,32.54
2023-05-02T11:58:34.967Z,33.51
2023-05-02T12:01:37.526Z,33.82
2023-05-02T12:04:46.430Z,33.43
2023-05-02T12:07:49.485Z,33.91
2023-05-02T12:10:53.918Z,33.37
2023-05-02T12:13:58.972Z,32.68
2023-05-02T12:17:03.888Z,32.42
2023-05-02T12:20:08.932Z,32.83
2023-05-02T12:23:12.241Z,32.70
2023-05-02T12:26:17.628Z,32.80
2023-05-02T12:29:20.875Z,32.43
2023-05-02T12:32:34.550Z,32.53
2023-05-02T12:35:37.764Z,32.35
2023-05-02T12:38:41.974Z,32.06
2023-05-02T12:41:46.277Z,32.16
2023-05-02T12:44:52.453Z,32.09
2023-05-02T12:47:55.997Z,33.18
2023-05-02T12:50:58.620Z,33.66
2023-05-02T12:54:01.906Z,34.08
2023-05-02T12:57:04.635Z,34.47
2023-05-02T13:00:08.499Z,34.69
2023-05-02T13:03:11.228Z,34.52
2023-05-02T13:06:14.105Z,35.11
2023-05-02T13:09:20.099Z,34.77
2023-05-02T13:12:23.509Z,34.01
2023-05-02T13:15:26.680Z,34.65
2023-05-02T13:18:29.672Z,33.92
2023-05-02T13:21:32.572Z,34.08
2023-05-02T13:24:35.414Z,34.35
2023-05-02T13:27:38.209Z,34.60
2023-05-02T13:30:41.390Z,34.83
2023-05-02T13:33:43.980Z,35.02
2023-05-02T13:36:46.939Z,34.29
2023-05-02T13:39:49.416Z,35.25
2023-05-02T13:42:52.244Z,34.42
2023-05-02T13:45:54.966Z,34.43
2023-05-02T13:48:58.335Z,34.58
2023-05-02T13:52:01.016Z,33.95
2023-05-02T13:55:04.980Z,34.22
2023-05-02T13:58:08.325Z,34.01
2023-05-02T14:01:11.242Z,34.06
2023-05-02T14:04:15.049Z,33.74
2023-05-02T14:07:17.796Z,33.30
2023-05-02T14:10:20.828Z,33.72
2023-05-02T14:13:26.200Z,34.00
2023-05-02T14:16:30.121Z,33.91
2023-05-02T14:19:34.024Z,34.56
2023-05-02T14:22:36.900Z,34.34
2023-05-02T14:25:39.434Z,34.53
2023-05-02T14:28:42.536Z,34.58
2023-05-02T14:31:49.073Z,34.88
2023-05-02T14:34:51.823Z,35.22
2023-05-02T14:37:54.358Z,35.57
2023-05-02T14:40:57.338Z,35.45
2023-05-02T14:44:00.001Z,35.54
2023-05-02T14:47:03.118Z,35.52
2023-05-02T14:50:06.635Z,35.42
2023-05-02T14:53:09.716Z,35.54
2023-05-02T14:56:14.779Z,35.46
2023-05-02T14:59:17.639Z,35.76
2023-05-02T15:02:21.837Z,36.03
2023-05-02T15:05:25.055Z,36.52
2023-05-02T15:08:29.465Z,36.98
2023-05-02T15:11:32.520Z,36.29
2023-05-02T15:14:35.402Z,36.38
2023-05-02T15:17:38.315Z,36.62
2023-05-02T15:20:41.060Z,36.92
2023-05-02T15:23:44.113Z,37.10
2023-05-02T15:26:46.994Z,37.50
2023-05-02T15:29:50.348Z,37.40
2023-05-02T15:32:52.978Z,37.84
2023-05-02T15:36:00.727Z,37.56
2023-05-02T15:39:04.578Z,36.93
2023-05-02T15:42:08.568Z,36.59
2023-05-02T15:45:13.349Z,36.90
2023-05-02T15:48:16.259Z,36.89
2023-05-02T15:51:19.007Z,35.82
2023-05-02T15:54:22.390Z,35.33
2023-05-02T15:57:26.275Z,35.60
2023-05-02T16:00:29.303Z,35.21
2023-05-02T16:03:34.562Z,35.79
2023-05-02T16:06:37.194Z,35.91
2023-05-02T16:09:41.791Z,35.72
2023-05-02T16:12:44.300Z,35.80
2023-05-02T16:15:49.360Z,35.87
2023-05-02T16:18:52.234Z,36.14
2023-05-02T16:21:55.273Z,35.82
2023-05-02T16:24:58.641Z,36.25
2023-05-02T16:28:01.624Z,35.83
2023-05-02T16:31:10.958Z,35.92
2023-05-02T16:34:14.121Z,35.96
2023-05-02T16:37:17.232Z,35.79
2023-05-02T16:40:20.414Z,36.05
2023-05-02T16:43:23.695Z,36.36
2023-05-02T16:46:27.455Z,36.34
2023-05-02T16:49:30.036Z,36.62
2023-05-02T16:52:34.232Z,36.83
2023-05-02T16:55:36.780Z,37.03
2023-05-02T16:58:39.914Z,37.01
2023-05-02T17:01:42.593Z,37.40
2023-05-02T17:04:48.596Z,37.39
2023-05-02T17:07:51.539Z,40.98
2023-05-02T17:10:54.537Z,43.76
2023-05-02T17:13:57.248Z,44.73
2023-05-02T17:17:01.339Z,46.01
2023-05-02T17:20:06.408Z,48.38
2023-05-02T17:23:12.345Z,49.19
2023-05-02T17:26:15.614Z,49.11
2023-05-02T17:29:18.683Z,50.27
2023-05-02T17:32:21.905Z,50.98
2023-05-02T17:35:24.836Z,50.33
2023-05-02T17:38:27.514Z,50.96
2023-05-02T17:41:31.401Z,51.32
2023-05-02T17:44:36.867Z,51.47
2023-05-02T17:47:39.885Z,51.77
2023-05-02T17:50:42.986Z,52.02
2023-05-02T17:53:51.576Z,53.19
2023-05-02T17:56:54.483Z,53.31
2023-05-02T17:59:59.606Z,52.53
2023-05-02T18:03:02.596Z,52.89
2023-05-02T18:06:06.129Z,54.00
2023-05-02T18:09:09.892Z,54.00
2023-05-02T18:12:13.355Z,53.96
2023-05-02T18:15:16.567Z,53.86
2023-05-02T18:18:19.922Z,54.94
2023-05-02T18:21:23.349Z,56.59
2023-05-02T18:24:31.661Z,59.39
2023-05-02T18:27:34.458Z,59.86
2023-05-02T18:30:38.077Z,61.51
2023-05-02T18:33:42.043Z,60.06
2023-05-02T18:36:47.860Z,62.19
2023-05-02T18:39:50.564Z,61.90
2023-05-02T18:42:53.902Z,61.84
2023-05-02T18:45:58.483Z,62.22
2023-05-02T18:49:10.585Z,60.97
2023-05-02T18:52:13.506Z,60.59
2023-05-02T18:55:17.285Z,61.13
2023-05-02T18:58:20.222Z,62.33
2023-05-02T19:01:24.594Z,64.73
2023-05-02T19:04:31.937Z,66.31
2023-05-02T19:07:36.283Z,65.89
2023-05-02T19:10:41.390Z,70.07
2023-05-02T19:13:44.391Z,68.80
2023-05-02T19:16:49.753Z,68.90
2023-05-02T19:19:53.737Z,71.28
2023-05-02T19:23:14.699Z,76.37
2023-05-02T19:26:20.930Z,73.31
2023-05-02T19:29:24.173Z,78.11
2023-05-02T19:32:27.748Z,78.37
2023-05-02T19:35:34.040Z,77.55
2023-05-02T19:38:37.267Z,81.29
2023-05-02T19:41:44.304Z,83.92
2023-05-02T19:44:48.403Z,83.04
2023-05-02T19:47:52.800Z,83.41
2023-05-02T19:50:55.977Z,84.72
2023-05-02T19:53:58.986Z,83.31
2023-05-02T19:57:03.057Z,85.43
2023-05-02T20:00:06.573Z,86.39
2023-05-02T20:03:15.403Z,85.44
2023-05-02T20:06:18.493Z,85.47
2023-05-02T20:09:21.639Z,86.86
2023-05-02T20:12:24.476Z,89.77
2023-05-02T20:15:27.608Z,92.25
2023-05-02T20:18:33.753Z,92.46
2023-05-02T20:21:36.487Z,91.40
2023-05-02T20:24:39.676Z,96.00
2023-05-02T20:27:42.971Z,100.00
2023-05-02T20:30:46.114Z,100.00
2023-05-02T20:33:48.660Z,100.00
2023-05-02T20:36:52.559Z,100.00
2023-05-02T20:39:56.286Z,100.00
2023-05-02T20:43:01.866Z,100.00
2023-05-02T20:46:10.259Z,100.00
2023-05-02T20:49:13.331Z,100.00
2023-05-02T20:52:16.199Z,100.00
2023-05-02T20:55:20.317Z,100.00
2023-05-02T20:58:26.351Z,100.00
2023-05-02T21:01:30.438Z,100.00
2023-05-02T21:04:34.312Z,100.00
2023-05-02T21:07:37.040Z,100.00
2023-05-02T21:10:39.773Z,100.00
2023-05-02T21:13:43.191Z,100.00
2023-05-02T21:16:49.826Z,100.00
2023-05-02T21:19:59.748Z,100.00
2023-05-02T21:23:02.482Z,100.00
2023-05-02T21:26:05.638Z,100.00
2023-05-02T21:29:11.119Z,100.00
2023-05-02T21:32:17.058Z,100.00
2023-05-02T21:35:19.804Z,100.00
2023-05-02T21:38:22.641Z,100.00
2023-05-02T21:41:25.516Z,100.00
2023-05-02T21:44:28.344Z,100.00
2023-05-02T21:47:32.680Z,100.00
2023-05-02T21:50:35.803Z,100.00
2023-05-02T21:53:38.508Z,100.00
2023-05-02T21:56:41.327Z,100.00
2023-05-02T21:59:43.875Z,100.00
2023-05-02T22:02:46.984Z,100.00
2023-05-02T22:05:49.925Z,100.00
2023-05-02T22:08:52.581Z,100.00
2023-05-02T22:11:55.689Z,100.00
2023-05-02T22:14:59.639Z,100.00
2023-05-02T22:18:06.669Z,100.00
2023-05-02T22:21:12.166Z,100.00
2023-05-02T22:24:16.875Z,100.00
2023-05-02T22:27:19.383Z,100.00
2023-05-02T22:30:22.298Z,100.00
2023-05-02T22:33:25.392Z,100.00
2023-05-02T22:36:28.235Z,100.00
2023-05-02T22:39:30.712Z,100.00
2023-05-02T22:42:34.397Z,100.00
2023-05-02T22:45:37.583Z,100.00
2023-05-02T22:48:40.548Z,100.00
2023-05-02T22:51:43.527Z,100.00
2023-05-02T22:54:46.367Z,100.00
2023-05-02T22:57:48.903Z,100.00
2023-05-02T23:00:52.071Z,100.00
2023-05-02T23:03:54.854Z,100.00
2023-05-02T23:06:57.812Z,100.00
2023-05-02T23:10:01.323Z,100.00
2023-05-02T23:13:05.329Z,100.00
2023-05-02T23:16:07.933Z,100.00
2023-05-02T23:19:12.307Z,100.00
2023-05-02T23:22:15.096Z,100.00
2023-05-02T23:25:18.782Z,100.00
2023-05-02T23:28:21.534Z,100.00
2023-05-02T23:31:24.475Z,100.00
2023-05-02T23:34:27.300Z,100.00
2023-05-02T23:37:30.231Z,100.00
2023-05-02T23:40:34.820Z,100.00
2023-05-02T23:43:37.928Z,100.00
2023-05-02T23:46:41.486Z,100.00
2023-05-02T23:49:44.503Z,100.00
2023-05-02T23:52:47.100Z,100.00
2023-05-02T23:55:49.919Z,100.00
2023-05-02T23:58:52.547Z,100.00
